sensor_id;sensor_type;location;lat;lon;timestamp;pressure;altitude;pressure_sealevel;temperature;humidity
75923;BME280;64602;47.542;19.090;2023-03-03T06:29:31;100493.91;;;2.81;77.66
75923;BME280;64602;47.542;19.090;2023-03-03T06:34:33;100479.28;;;2.83;77.17
75923;BME280;64602;47.542;19.090;2023-03-03T06:39:35;100485.13;;;3.00;77.04
75923;BME280;64602;47.542;19.090;2023-03-03T06:44:37;100490.59;;;3.27;76.32
75923;BME280;64602;47.542;19.090;2023-03-03T06:49:40;100488.53;;;3.29;75.71
75923;BME280;64602;47.542;19.090;2023-03-03T06:54:42;100502.00;;;3.49;75.48
75923;BME280;64602;47.542;19.090;2023-03-03T06:59:51;100517.75;;;3.65;75.16
75923;BME280;64602;47.542;19.090;2023-03-03T07:04:55;100504.94;;;3.74;74.60
75923;BME280;64602;47.542;19.090;2023-03-03T07:09:57;100504.94;;;3.74;74.31
75923;BME280;64602;47.542;19.090;2023-03-03T07:15:17;100513.44;;;3.84;74.28
75923;BME280;64602;47.542;19.090;2023-03-03T07:20:23;100533.06;;;3.84;74.68
75923;BME280;64602;47.542;19.090;2023-03-03T07:25:28;100520.03;;;3.88;74.49
75923;BME280;64602;47.542;19.090;2023-03-03T07:30:31;100541.56;;;4.21;74.09
75923;BME280;64602;47.542;19.090;2023-03-03T07:35:40;100536.16;;;4.15;73.52
75923;BME280;64602;47.542;19.090;2023-03-03T07:40:54;100535.34;;;4.14;73.34
75923;BME280;64602;47.542;19.090;2023-03-03T07:51:22;100543.38;;;4.61;72.71
75923;BME280;64602;47.542;19.090;2023-03-03T07:56:33;100527.06;;;4.69;71.84
75923;BME280;64602;47.542;19.090;2023-03-03T08:01:45;100542.72;;;4.85;71.70
75923;BME280;64602;47.542;19.090;2023-03-03T08:06:53;100549.50;;;5.01;71.69
75923;BME280;64602;47.542;19.090;2023-03-03T08:12:00;100533.19;;;4.96;71.66
75923;BME280;64602;47.542;19.090;2023-03-03T08:17:14;100524.81;;;5.24;70.92
75923;BME280;64602;47.542;19.090;2023-03-03T08:22:32;100532.69;;;5.19;70.91
75923;BME280;64602;47.542;19.090;2023-03-03T08:27:34;100532.72;;;5.57;70.55
75923;BME280;64602;47.542;19.090;2023-03-03T08:32:36;100529.66;;;5.86;69.72
75923;BME280;64602;47.542;19.090;2023-03-03T08:37:39;100542.03;;;6.25;68.96
75923;BME280;64602;47.542;19.090;2023-03-03T08:42:41;100537.38;;;6.57;67.79
75923;BME280;64602;47.542;19.090;2023-03-03T08:47:43;100542.31;;;6.85;67.48
75923;BME280;64602;47.542;19.090;2023-03-03T08:52:45;100526.44;;;7.14;66.17
75923;BME280;64602;47.542;19.090;2023-03-03T08:57:48;100521.87;;;7.45;65.64
75923;BME280;64602;47.542;19.090;2023-03-03T09:02:50;100531.75;;;7.81;64.26
75923;BME280;64602;47.542;19.090;2023-03-03T09:07:52;100543.59;;;8.22;63.86
75923;BME280;64602;47.542;19.090;2023-03-03T09:12:56;100522.81;;;8.11;63.12
75923;BME280;64602;47.542;19.090;2023-03-03T09:23:34;100534.41;;;8.65;62.10
75923;BME280;64602;47.542;19.090;2023-03-03T09:28:37;100532.72;;;8.76;61.95
75923;BME280;64602;47.542;19.090;2023-03-03T09:33:46;100520.16;;;9.34;61.00
75923;BME280;64602;47.542;19.090;2023-03-03T09:38:51;100508.81;;;10.11;58.99
75923;BME280;64602;47.542;19.090;2023-03-03T09:49:15;100531.91;;;11.47;55.96
75923;BME280;64602;47.542;19.090;2023-03-03T10:10:44;100518.31;;;12.66;52.11
75923;BME280;64602;47.542;19.090;2023-03-03T10:16:08;100509.16;;;12.82;50.78
75923;BME280;64602;47.542;19.090;2023-03-03T10:21:28;100514.91;;;13.49;50.04
75923;BME280;64602;47.542;19.090;2023-03-03T11:15:36;100466.41;;;20.65;33.14
75923;BME280;64602;47.542;19.090;2023-03-03T11:20:49;100450.13;;;19.78;34.10
75923;BME280;64602;47.542;19.090;2023-03-03T11:57:41;100418.28;;;25.73;23.91
75923;BME280;64602;47.542;19.090;2023-03-03T12:03:15;100403.50;;;20.76;29.31
75923;BME280;64602;47.542;19.090;2023-03-03T12:08:25;100403.66;;;24.46;25.46
75923;BME280;64602;47.542;19.090;2023-03-03T12:13:49;100408.69;;;27.10;21.68
75923;BME280;64602;47.542;19.090;2023-03-03T12:18:59;100395.06;;;26.53;21.89
75923;BME280;64602;47.542;19.090;2023-03-03T12:24:17;100388.28;;;24.85;24.68
75923;BME280;64602;47.542;19.090;2023-03-03T12:29:41;100384.44;;;26.59;22.81
75923;BME280;64602;47.542;19.090;2023-03-03T12:35:09;100373.66;;;22.76;26.86
75923;BME280;64602;47.542;19.090;2023-03-03T12:40:18;100364.88;;;19.14;32.47
75923;BME280;64602;47.542;19.090;2023-03-03T12:45:27;100395.75;;;26.34;23.29
75923;BME280;64602;47.542;19.090;2023-03-03T12:50:45;100384.44;;;24.28;24.56
75923;BME280;64602;47.542;19.090;2023-03-03T12:55:52;100373.28;;;20.62;29.27
75923;BME280;64602;47.542;19.090;2023-03-03T13:06:28;100373.19;;;20.44;29.35
75923;BME280;64602;47.542;19.090;2023-03-03T13:11:38;100365.09;;;20.48;28.07
75923;BME280;64602;47.542;19.090;2023-03-03T13:22:04;100372.53;;;27.48;20.30
75923;BME280;64602;47.542;19.090;2023-03-03T13:27:15;100367.47;;;26.99;20.39
75923;BME280;64602;47.542;19.090;2023-03-03T13:32:23;100357.38;;;24.01;22.88
75923;BME280;64602;47.542;19.090;2023-03-03T13:37:38;100334.81;;;21.96;25.45
75923;BME280;64602;47.542;19.090;2023-03-03T13:43:01;100329.06;;;19.96;28.15
75923;BME280;64602;47.542;19.090;2023-03-03T13:58:36;100320.44;;;17.88;30.57
75923;BME280;64602;47.542;19.090;2023-03-03T14:10:02;100300.34;;;17.08;33.64
75923;BME280;64602;47.542;19.090;2023-03-03T14:20:29;100303.75;;;17.19;33.84
75923;BME280;64602;47.542;19.090;2023-03-03T14:25:51;100306.34;;;18.08;31.66
75923;BME280;64602;47.542;19.090;2023-03-03T14:30:57;100305.37;;;16.39;34.53
75923;BME280;64602;47.542;19.090;2023-03-03T14:36:11;100293.56;;;15.66;35.66
75923;BME280;64602;47.542;19.090;2023-03-03T14:41:17;100306.13;;;18.32;31.71
75923;BME280;64602;47.542;19.090;2023-03-03T15:02:26;100298.41;;;18.07;31.79
75923;BME280;64602;47.542;19.090;2023-03-03T15:07:35;100283.59;;;16.91;33.35
75923;BME280;64602;47.542;19.090;2023-03-03T15:12:40;100297.00;;;18.73;30.93
75923;BME280;64602;47.542;19.090;2023-03-03T15:46:08;100311.78;;;17.81;31.36
75923;BME280;64602;47.542;19.090;2023-03-03T15:51:05;100314.13;;;17.55;31.51
75923;BME280;64602;47.542;19.090;2023-03-03T16:07:13;100316.13;;;13.73;37.95
75923;BME280;64602;47.542;19.090;2023-03-03T16:12:37;100326.09;;;12.70;40.18
75923;BME280;64602;47.542;19.090;2023-03-03T16:23:37;100333.28;;;11.49;42.98
75923;BME280;64602;47.542;19.090;2023-03-03T16:34:06;100332.22;;;10.68;45.29
75923;BME280;64602;47.542;19.090;2023-03-03T16:39:52;100339.69;;;10.34;46.27
75923;BME280;64602;47.542;19.090;2023-03-03T16:45:14;100343.72;;;10.32;47.64
75923;BME280;64602;47.542;19.090;2023-03-03T17:07:01;100357.06;;;9.32;49.00
75923;BME280;64602;47.542;19.090;2023-03-03T17:12:18;100360.09;;;9.18;49.29
75923;BME280;64602;47.542;19.090;2023-03-03T17:28:06;100377.97;;;8.62;51.00
75923;BME280;64602;47.542;19.090;2023-03-03T17:44:19;100374.34;;;8.33;51.43
75923;BME280;64602;47.542;19.090;2023-03-03T17:55:03;100380.25;;;8.06;52.09
75923;BME280;64602;47.542;19.090;2023-03-03T18:00:21;100385.84;;;7.81;53.00
75923;BME280;64602;47.542;19.090;2023-03-03T18:22:10;100394.44;;;7.78;51.97
75923;BME280;64602;47.542;19.090;2023-03-03T18:33:24;100394.22;;;7.80;51.61
75923;BME280;64602;47.542;19.090;2023-03-03T18:48:59;100386.13;;;7.80;51.39
75923;BME280;64602;47.542;19.090;2023-03-03T18:59:39;100379.13;;;7.48;53.08
75923;BME280;64602;47.542;19.090;2023-03-03T19:04:45;100388.41;;;7.41;52.93
75923;BME280;64602;47.542;19.090;2023-03-03T19:09:52;100383.44;;;7.38;52.42
75923;BME280;64602;47.542;19.090;2023-03-03T19:14:58;100389.44;;;7.40;51.83
75923;BME280;64602;47.542;19.090;2023-03-03T19:42:04;100409.44;;;6.90;53.19
75923;BME280;64602;47.542;19.090;2023-03-03T19:47:50;100408.62;;;6.71;53.77
75923;BME280;64602;47.542;19.090;2023-03-03T19:58:23;100419.28;;;6.48;54.38
75923;BME280;64602;47.542;19.090;2023-03-03T20:09:16;100417.09;;;6.38;53.84
75923;BME280;64602;47.542;19.090;2023-03-03T20:19:54;100425.69;;;6.28;53.84
75923;BME280;64602;47.542;19.090;2023-03-03T20:30:44;100433.09;;;6.14;53.70
75923;BME280;64602;47.542;19.090;2023-03-03T20:35:53;100429.84;;;6.06;53.98
75923;BME280;64602;47.542;19.090;2023-03-03T20:46:24;100416.09;;;5.89;53.66
75923;BME280;64602;47.542;19.090;2023-03-03T20:51:39;100425.59;;;5.91;53.55
75923;BME280;64602;47.542;19.090;2023-03-03T20:57:21;100423.34;;;5.88;53.52
75923;BME280;64602;47.542;19.090;2023-03-03T21:02:46;100414.53;;;5.74;53.06
75923;BME280;64602;47.542;19.090;2023-03-03T21:08:03;100418.62;;;5.84;52.89
75923;BME280;64602;47.542;19.090;2023-03-03T21:13:26;100429.22;;;5.78;53.13
75923;BME280;64602;47.542;19.090;2023-03-03T21:18:31;100430.69;;;5.74;52.62
75923;BME280;64602;47.542;19.090;2023-03-03T21:23:33;100433.19;;;5.76;52.53
75923;BME280;64602;47.542;19.090;2023-03-03T21:28:35;100429.72;;;5.69;53.10
75923;BME280;64602;47.542;19.090;2023-03-03T21:38:51;100415.16;;;5.51;53.13
75923;BME280;64602;47.542;19.090;2023-03-03T21:43:54;100423.84;;;5.53;53.35
75923;BME280;64602;47.542;19.090;2023-03-03T21:48:56;100437.09;;;5.48;53.24
75923;BME280;64602;47.542;19.090;2023-03-03T21:53:58;100416.50;;;5.29;53.28
75923;BME280;64602;47.542;19.090;2023-03-03T21:59:00;100412.22;;;5.21;53.71
75923;BME280;64602;47.542;19.090;2023-03-03T22:04:03;100418.47;;;5.15;54.09
75923;BME280;64602;47.542;19.090;2023-03-03T22:09:05;100432.12;;;5.13;54.58
75923;BME280;64602;47.542;19.090;2023-03-03T22:14:07;100432.41;;;4.99;54.52
75923;BME280;64602;47.542;19.090;2023-03-03T22:19:09;100420.25;;;4.89;54.53
75923;BME280;64602;47.542;19.090;2023-03-03T22:24:12;100420.69;;;4.86;54.59
